Time;durP1;ratioP1;P1;durP2;ratioP2;P2;SDS_P1;SDS_P2;PMS_P1;PMS_P2;Temp;Humidity;BMP_temperature;BMP_pressure;BME280_temperature;BME280_humidity;BME280_pressure;Samples;Min_cycle;Max_cycle;Signal;HPM_P1;HPM_P2
2022/07/02 00:01:46;;;;;;;2.97;1.67;;;14.80;99.90;;;;;;5114617;28;20627;-63
2022/07/02 00:04:16;;;;;;;4.30;1.80;;;14.80;99.90;;;;;;5114555;28;20550;-63
2022/07/02 00:06:44;;;;;;;1.67;1.30;;;14.80;99.90;;;;;;5114301;28;20305;-63
2022/07/02 00:09:13;;;;;;;1.70;1.60;;;14.80;99.90;;;;;;5114637;28;20208;-63
2022/07/02 00:11:42;;;;;;;2.50;1.80;;;14.80;99.90;;;;;;5114197;28;20620;-64
2022/07/02 00:14:09;;;;;;;3.47;1.73;;;14.80;99.90;;;;;;5114231;28;20207;-63
2022/07/02 00:16:36;;;;;;;2.13;1.90;;;14.80;99.90;;;;;;5114093;28;20208;-64
2022/07/02 00:19:03;;;;;;;2.93;1.50;;;14.80;99.90;;;;;;5114303;28;20208;-64
2022/07/02 00:21:30;;;;;;;3.93;1.90;;;14.80;99.90;;;;;;5114431;28;20574;-64
2022/07/02 00:23:56;;;;;;;5.13;1.90;;;14.70;99.90;;;;;;5113606;28;20204;-64
2022/07/02 00:26:29;;;;;;;2.80;1.63;;;14.80;99.90;;;;;;5113849;28;20223;-64
2022/07/02 00:29:02;;;;;;;2.43;1.90;;;14.70;99.90;;;;;;5113890;28;20628;-63
2022/07/02 00:31:29;;;;;;;2.60;1.73;;;14.60;99.90;;;;;;5114202;28;20203;-63
2022/07/02 00:33:58;;;;;;;2.57;1.70;;;14.60;99.90;;;;;;5114174;28;20207;-64
2022/07/02 00:36:26;;;;;;;6.20;1.70;;;14.60;99.90;;;;;;5113702;28;20228;-64
2022/07/02 00:38:52;;;;;;;1.80;1.70;;;14.60;99.90;;;;;;5114240;28;20211;-64
2022/07/02 00:41:21;;;;;;;2.03;1.30;;;14.50;99.90;;;;;;5113495;28;20204;-64
2022/07/02 00:43:50;;;;;;;3.00;1.80;;;14.60;99.90;;;;;;5113730;28;20206;-63
2022/07/02 00:46:18;;;;;;;2.60;1.60;;;14.60;99.90;;;;;;5113779;28;20613;-64
2022/07/02 00:48:45;;;;;;;2.87;1.60;;;14.60;99.90;;;;;;5113883;28;20231;-63
2022/07/02 00:51:12;;;;;;;2.87;1.57;;;14.60;99.90;;;;;;5113568;28;20212;-63
2022/07/02 00:53:39;;;;;;;1.90;1.50;;;14.50;99.90;;;;;;5113594;28;20214;-63
2022/07/02 00:56:05;;;;;;;3.50;1.70;;;14.40;99.90;;;;;;5113658;28;20223;-63
2022/07/02 00:58:32;;;;;;;3.10;1.70;;;14.30;99.90;;;;;;5113867;28;20585;-62
2022/07/02 01:01:01;;;;;;;4.07;1.60;;;14.30;99.90;;;;;;5113361;28;20204;-62
2022/07/02 01:03:31;;;;;;;2.83;1.50;;;14.30;99.90;;;;;;5113428;28;20211;-65
2022/07/02 01:05:58;;;;;;;3.97;1.57;;;14.30;99.90;;;;;;5113242;28;20224;-62
2022/07/02 01:11:13;;;;;;;4.33;1.70;;;14.20;99.90;;;;;;5113208;28;20579;-62
2022/07/02 01:13:40;;;;;;;4.90;1.90;;;14.10;99.90;;;;;;5113309;28;20565;-62
2022/07/02 01:16:08;;;;;;;7.50;1.77;;;14.00;99.90;;;;;;5113075;28;20220;-62
2022/07/02 01:18:36;;;;;;;2.37;1.60;;;14.00;99.90;;;;;;5113187;28;20204;-63
2022/07/02 01:21:03;;;;;;;4.00;1.53;;;13.90;99.90;;;;;;5113180;28;20208;-62
2022/07/02 01:23:31;;;;;;;5.77;1.70;;;13.90;99.90;;;;;;5113351;28;20207;-64
2022/07/02 01:25:57;;;;;;;4.93;1.73;;;13.90;99.90;;;;;;5112969;28;20223;-64
2022/07/02 01:28:24;;;;;;;3.17;1.50;;;13.90;99.90;;;;;;5113218;28;20256;-64
2022/07/02 01:30:52;;;;;;;2.07;1.70;;;13.80;99.90;;;;;;5112942;28;20241;-63
2022/07/02 01:33:19;;;;;;;3.43;1.57;;;13.70;99.90;;;;;;5113001;28;20215;-62
2022/07/02 01:35:46;;;;;;;4.27;1.40;;;13.60;99.90;;;;;;5111820;28;20266;-62
2022/07/02 01:38:13;;;;;;;2.43;1.50;;;13.60;99.90;;;;;;5113030;28;20556;-64
2022/07/02 01:40:41;;;;;;;2.43;1.63;;;13.50;99.90;;;;;;5112996;28;20214;-63
2022/07/02 01:43:08;;;;;;;2.83;1.60;;;13.60;99.90;;;;;;5112856;28;20214;-63
2022/07/02 01:45:34;;;;;;;1.60;1.50;;;13.60;99.90;;;;;;5112710;28;20234;-63
2022/07/02 01:48:01;;;;;;;2.53;1.60;;;13.60;99.90;;;;;;5112759;28;20264;-64
2022/07/02 01:50:28;;;;;;;4.63;1.50;;;13.60;99.90;;;;;;5112609;28;20200;-63
2022/07/02 01:52:56;;;;;;;4.10;1.70;;;13.60;99.90;;;;;;5112799;28;20381;-64
2022/07/02 01:55:23;;;;;;;3.57;1.40;;;13.60;99.90;;;;;;5112554;28;20843;-63
2022/07/02 01:57:53;;;;;;;2.57;1.67;;;13.60;99.90;;;;;;5113025;28;20227;-63
2022/07/02 02:00:20;;;;;;;2.77;1.60;;;13.60;99.90;;;;;;5112822;28;20203;-64
2022/07/02 02:02:47;;;;;;;3.70;1.60;;;13.50;99.90;;;;;;5112473;28;20207;-63
2022/07/02 02:05:14;;;;;;;4.03;1.60;;;13.50;99.90;;;;;;5112967;28;20255;-64
2022/07/02 02:07:41;;;;;;;2.80;1.40;;;13.40;99.90;;;;;;5112915;28;20207;-64
2022/07/02 02:10:08;;;;;;;2.03;1.47;;;13.30;99.90;;;;;;5113150;28;20203;-63
2022/07/02 02:12:35;;;;;;;3.63;1.70;;;13.40;99.90;;;;;;5112561;28;20204;-63
2022/07/02 02:15:05;;;;;;;9.03;1.60;;;13.50;99.90;;;;;;5112476;28;20296;-63
2022/07/02 02:17:31;;;;;;;2.63;1.73;;;13.50;99.90;;;;;;5112811;28;20204;-64
2022/07/02 02:19:58;;;;;;;2.47;1.40;;;13.50;99.90;;;;;;5112337;28;20199;-64
2022/07/02 02:22:25;;;;;;;4.83;1.90;;;13.50;99.90;;;;;;5112181;28;20686;-64
2022/07/02 02:24:52;;;;;;;5.37;1.77;;;13.50;99.90;;;;;;5112366;28;20231;-64
2022/07/02 02:27:18;;;;;;;4.77;1.83;;;13.40;99.90;;;;;;5112308;28;20223;-62
2022/07/02 02:29:45;;;;;;;4.27;1.93;;;13.40;99.90;;;;;;5112272;28;20199;-64
2022/07/02 02:32:14;;;;;;;3.67;1.60;;;13.50;99.90;;;;;;5112287;28;20208;-65
2022/07/02 02:34:40;;;;;;;3.67;1.90;;;13.40;99.90;;;;;;5112029;28;20711;-62
2022/07/02 02:37:07;;;;;;;1.37;1.20;;;13.50;99.90;;;;;;5112383;28;20199;-62
2022/07/02 02:39:34;;;;;;;4.03;1.57;;;13.50;99.90;;;;;;5112350;28;20211;-62
2022/07/02 02:42:01;;;;;;;5.40;1.60;;;13.40;99.90;;;;;;5111947;28;20264;-63
2022/07/02 02:44:28;;;;;;;4.57;1.63;;;13.50;99.90;;;;;;5112187;28;20290;-63
2022/07/02 02:46:54;;;;;;;3.23;1.77;;;13.50;99.90;;;;;;5112752;28;20703;-63
2022/07/02 02:49:22;;;;;;;6.00;1.87;;;13.50;99.90;;;;;;5116235;28;20211;-63
2022/07/02 02:51:49;;;;;;;4.93;1.70;;;13.40;99.90;;;;;;5117197;28;20203;-63
2022/07/02 02:54:16;;;;;;;1.77;1.67;;;13.40;99.90;;;;;;5116562;28;20671;-63
2022/07/02 02:56:42;;;;;;;3.07;1.80;;;13.40;99.90;;;;;;5116246;28;20728;-63
2022/07/02 02:59:09;;;;;;;4.03;1.73;;;13.40;99.90;;;;;;5116332;28;20568;-63
2022/07/02 03:01:36;;;;;;;4.97;1.63;;;13.30;99.90;;;;;;5116147;28;20236;-63
2022/07/02 03:04:02;;;;;;;8.53;2.00;;;13.30;99.90;;;;;;5115765;28;20690;-63
2022/07/02 03:06:30;;;;;;;4.50;1.80;;;13.30;99.90;;;;;;5115706;28;20230;-63
2022/07/02 03:08:57;;;;;;;4.37;1.97;;;13.30;99.90;;;;;;5115673;28;20204;-63
2022/07/02 03:11:24;;;;;;;3.10;1.70;;;13.30;99.90;;;;;;5115415;28;20207;-63
2022/07/02 03:13:51;;;;;;;3.03;1.50;;;13.30;99.90;;;;;;5115408;28;20211;-64
2022/07/02 03:16:17;;;;;;;2.53;1.60;;;13.30;99.90;;;;;;5115463;28;20724;-62
2022/07/02 03:18:45;;;;;;;2.37;1.40;;;13.30;99.90;;;;;;5115728;28;20200;-63
2022/07/02 03:21:11;;;;;;;5.70;1.83;;;13.30;99.90;;;;;;5115457;28;20219;-63
2022/07/02 03:23:39;;;;;;;4.40;1.73;;;13.40;99.90;;;;;;5115713;28;20207;-63
2022/07/02 03:26:06;;;;;;;3.37;1.83;;;13.40;99.90;;;;;;5115050;28;20228;-63
2022/07/02 03:28:33;;;;;;;4.80;1.70;;;13.40;99.90;;;;;;5115439;28;20204;-63
2022/07/02 03:30:59;;;;;;;4.87;2.23;;;13.30;99.90;;;;;;5115344;28;20576;-64
2022/07/02 03:33:26;;;;;;;2.77;1.80;;;13.40;99.90;;;;;;5115316;28;20636;-63
2022/07/02 03:35:53;;;;;;;4.03;1.60;;;13.30;99.90;;;;;;5108067;22;20262;-61
2022/07/02 03:38:20;;;;;;;4.60;1.73;;;13.20;99.90;;;;;;5048314;28;20221;-61
2022/07/02 03:40:48;;;;;;;4.20;1.70;;;13.30;99.90;;;;;;5056882;28;20213;-61
2022/07/02 03:43:15;;;;;;;12.00;1.70;;;13.30;99.90;;;;;;5056618;28;20213;-61
2022/07/02 03:45:41;;;;;;;2.57;1.90;;;13.30;99.90;;;;;;5056100;28;20230;-61
2022/07/02 03:48:08;;;;;;;1.90;1.70;;;13.40;99.90;;;;;;5056744;28;20221;-59
2022/07/02 03:50:38;;;;;;;4.17;1.70;;;13.40;99.90;;;;;;5057491;28;20209;-60
2022/07/02 03:53:04;;;;;;;3.07;1.57;;;13.40;99.90;;;;;;5058177;28;20209;-60
2022/07/02 03:55:31;;;;;;;3.13;1.80;;;13.50;99.90;;;;;;5057310;28;20313;-60
2022/07/02 03:57:59;;;;;;;2.97;1.67;;;13.60;99.90;;;;;;5056914;28;20212;-60
2022/07/02 04:00:26;;;;;;;5.00;1.97;;;13.60;99.90;;;;;;5056815;28;20211;-60
2022/07/02 04:02:53;;;;;;;3.57;1.60;;;13.60;99.90;;;;;;5056623;28;20228;-60
2022/07/02 04:05:20;;;;;;;3.43;1.80;;;13.70;99.90;;;;;;5055792;28;20714;-60
2022/07/02 04:07:47;;;;;;;2.77;1.60;;;13.60;99.90;;;;;;5055456;28;20261;-60
2022/07/02 04:10:13;;;;;;;4.07;1.83;;;13.70;99.90;;;;;;5055858;28;20210;-60
2022/07/02 04:12:40;;;;;;;4.47;1.63;;;13.70;99.90;;;;;;5055265;28;20244;-60
2022/07/02 04:15:09;;;;;;;2.70;1.50;;;13.70;99.90;;;;;;5054757;28;20606;-60
2022/07/02 04:17:36;;;;;;;4.33;1.70;;;13.70;99.90;;;;;;5055237;28;20208;-60
2022/07/02 04:20:03;;;;;;;2.73;1.70;;;13.70;99.90;;;;;;5054861;28;20213;-60
2022/07/02 04:22:30;;;;;;;3.30;1.50;;;13.70;99.90;;;;;;5055889;28;20208;-60
2022/07/02 04:24:57;;;;;;;3.83;2.07;;;13.80;99.90;;;;;;5055381;28;20234;-60
2022/07/02 04:27:24;;;;;;;2.67;1.70;;;13.90;99.90;;;;;;5056051;28;20221;-60
2022/07/02 04:29:50;;;;;;;2.70;1.57;;;14.00;99.90;;;;;;5055487;28;20217;-61
2022/07/02 04:32:19;;;;;;;3.40;1.67;;;14.10;99.90;;;;;;5054763;28;20210;-61
2022/07/02 04:34:46;;;;;;;3.40;1.50;;;14.20;99.90;;;;;;5055669;28;20573;-61
2022/07/02 04:37:12;;;;;;;2.10;1.70;;;14.30;99.90;;;;;;5055277;28;20669;-60
2022/07/02 04:39:39;;;;;;;2.43;1.60;;;14.40;99.90;;;;;;5055274;28;20215;-60
2022/07/02 04:42:06;;;;;;;2.63;1.60;;;14.50;99.90;;;;;;5054852;28;20216;-61
2022/07/02 04:44:33;;;;;;;1.80;1.60;;;14.60;99.90;;;;;;5055551;28;20206;-61
2022/07/02 04:47:00;;;;;;;3.63;1.57;;;14.60;99.90;;;;;;5055690;28;20231;-61
2022/07/02 04:49:28;;;;;;;3.10;1.50;;;14.80;99.90;;;;;;5056118;28;20209;-61
2022/07/02 04:51:55;;;;;;;4.03;2.20;;;15.30;99.90;;;;;;5055994;28;20212;-61
2022/07/02 04:54:22;;;;;;;3.17;1.77;;;16.30;99.90;;;;;;5054934;28;20205;-61
2022/07/02 04:56:49;;;;;;;1.63;1.40;;;17.90;99.90;;;;;;5054090;28;20226;-61
2022/07/02 04:59:16;;;;;;;4.00;1.45;;;20.00;99.90;;;;;;5053948;28;20237;-60
2022/07/02 05:01:42;;;;;;;3.70;2.22;;;22.00;99.90;;;;;;5054021;28;20723;-61
2022/07/02 05:04:10;;;;;;;2.38;1.33;;;23.90;99.90;;;;;;5054932;28;20210;-61
2022/07/02 05:06:38;;;;;;;1.17;0.95;;;25.40;99.90;;;;;;5056048;28;20226;-61
2022/07/02 05:09:05;;;;;;;1.95;0.90;;;26.70;99.90;;;;;;5055914;28;20205;-61
2022/07/02 05:11:32;;;;;;;1.08;0.70;;;27.80;99.90;;;;;;5055448;28;20213;-61
2022/07/02 05:13:58;;;;;;;0.85;0.82;;;28.40;99.90;;;;;;5054919;28;20673;-61
2022/07/02 05:16:25;;;;;;;7.43;1.08;;;28.80;99.20;;;;;;5053674;28;20236;-61
2022/07/02 05:18:52;;;;;;;1.13;0.80;;;29.30;97.30;;;;;;5055289;28;20205;-61
2022/07/02 05:21:18;;;;;;;1.85;0.70;;;29.30;95.70;;;;;;5055123;28;20205;-60
2022/07/02 05:23:46;;;;;;;3.75;0.88;;;29.00;95.40;;;;;;5054225;28;20282;-62
2022/07/02 05:26:13;;;;;;;0.80;0.60;;;28.80;95.00;;;;;;5054349;28;20221;-61
2022/07/02 05:28:40;;;;;;;1.20;0.93;;;28.70;94.90;;;;;;5054980;28;20226;-61
2022/07/02 05:31:07;;;;;;;1.15;0.65;;;28.90;94.20;;;;;;5053870;28;20208;-60
2022/07/02 05:33:34;;;;;;;0.85;0.70;;;28.90;93.90;;;;;;5053366;28;20239;-61
2022/07/02 05:36:01;;;;;;;2.15;0.88;;;29.20;92.90;;;;;;5053173;28;20237;-61
2022/07/02 05:38:28;;;;;;;1.02;0.60;;;29.40;92.40;;;;;;5053632;28;20292;-61
2022/07/02 05:40:56;;;;;;;1.40;0.70;;;29.50;91.70;;;;;;5054039;28;20216;-61
2022/07/02 05:43:23;;;;;;;1.23;0.60;;;29.40;91.40;;;;;;5054081;28;20205;-61
2022/07/02 05:45:50;;;;;;;3.53;1.02;;;29.50;91.10;;;;;;5054592;28;20771;-61
2022/07/02 05:48:17;;;;;;;0.57;0.57;;;29.90;90.30;;;;;;5055154;28;20233;-61
2022/07/02 05:50:44;;;;;;;1.42;0.80;;;30.20;89.70;;;;;;5055020;28;20248;-61
2022/07/02 05:53:11;;;;;;;0.40;0.40;;;30.30;88.20;;;;;;5054636;28;20697;-61
2022/07/02 05:55:37;;;;;;;0.75;0.68;;;30.50;86.80;;;;;;5055529;28;20233;-61
2022/07/02 05:58:06;;;;;;;0.60;0.50;;;30.80;84.80;;;;;;5054233;28;20296;-61
2022/07/02 06:00:33;;;;;;;1.83;0.50;;;31.20;83.60;;;;;;5053620;28;20205;-61
2022/07/02 06:03:00;;;;;;;0.50;0.50;;;31.70;81.60;;;;;;5053892;28;20205;-61
2022/07/02 06:08:11;;;;;;;1.83;0.55;;;32.30;77.70;;;;;;5054395;28;20243;-63
2022/07/02 06:10:37;;;;;;;0.70;0.47;;;32.70;77.50;;;;;;5053411;28;20205;-60
2022/07/02 06:13:05;;;;;;;1.38;0.50;;;33.00;75.20;;;;;;5053078;28;20210;-62
2022/07/02 06:15:32;;;;;;;1.90;0.80;;;33.30;73.40;;;;;;5053005;28;20225;-61
2022/07/02 06:18:00;;;;;;;2.75;1.10;;;33.70;72.40;;;;;;5052856;28;20228;-61
2022/07/02 06:20:27;;;;;;;0.63;0.55;;;34.30;70.20;;;;;;5053636;28;20243;-62
2022/07/02 06:22:54;;;;;;;0.75;0.70;;;34.50;67.00;;;;;;5056080;28;20219;-61
2022/07/02 06:25:21;;;;;;;1.80;0.57;;;33.80;67.80;;;;;;5057279;28;20230;-61
2022/07/02 06:27:48;;;;;;;1.30;0.30;;;33.40;68.20;;;;;;5057091;28;20233;-60
2022/07/02 06:30:17;;;;;;;0.80;0.65;;;33.20;68.30;;;;;;5056705;28;20224;-60
2022/07/02 06:32:44;;;;;;;0.70;0.50;;;33.10;68.00;;;;;;5056299;28;20215;-61
2022/07/02 06:35:11;;;;;;;2.45;0.50;;;33.10;68.40;;;;;;5056539;28;20233;-60
2022/07/02 06:37:38;;;;;;;0.45;0.35;;;33.60;68.10;;;;;;5057137;28;20209;-61
2022/07/02 06:40:06;;;;;;;0.88;0.50;;;34.40;65.30;;;;;;5056443;28;20206;-61
2022/07/02 06:42:32;;;;;;;1.25;0.50;;;34.60;63.90;;;;;;5056296;28;20212;-61
2022/07/02 06:45:00;;;;;;;4.28;0.50;;;34.60;62.60;;;;;;5056131;28;20736;-61
2022/07/02 06:47:30;;;;;;;0.60;0.50;;;34.40;63.10;;;;;;5056641;28;20236;-61
2022/07/02 06:49:58;;;;;;;0.60;0.30;;;34.50;62.10;;;;;;5056380;28;20286;-61
2022/07/02 06:52:25;;;;;;;1.25;0.60;;;34.60;61.50;;;;;;5056182;28;20201;-62
2022/07/02 06:54:52;;;;;;;1.30;0.68;;;34.90;59.60;;;;;;5056629;28;20595;-62
2022/07/02 06:57:19;;;;;;;0.70;0.45;;;35.20;59.40;;;;;;5056456;28;20231;-63
2022/07/02 06:59:46;;;;;;;0.73;0.40;;;35.40;58.30;;;;;;5056505;28;20676;-62
2022/07/02 07:02:12;;;;;;;2.63;0.55;;;35.60;58.00;;;;;;5056467;28;20221;-62
2022/07/02 07:04:42;;;;;;;1.67;0.65;;;35.60;57.70;;;;;;5058287;28;20560;-62
2022/07/02 07:07:10;;;;;;;1.30;0.52;;;35.60;57.40;;;;;;5056316;28;20213;-61
2022/07/02 07:09:37;;;;;;;0.60;0.60;;;35.50;57.60;;;;;;5056439;28;20205;-63
2022/07/02 07:12:06;;;;;;;0.70;0.50;;;35.40;57.30;;;;;;5056128;28;20696;-63
2022/07/02 07:14:34;;;;;;;0.45;0.45;;;35.90;56.10;;;;;;5056243;28;20206;-64
2022/07/02 07:17:01;;;;;;;0.68;0.30;;;36.00;55.30;;;;;;5055486;28;20229;-63
2022/07/02 07:19:28;;;;;;;0.63;0.50;;;36.00;55.70;;;;;;5055913;28;20209;-63
2022/07/02 07:21:56;;;;;;;1.02;0.60;;;36.00;54.60;;;;;;5055784;28;20245;-63
2022/07/02 07:24:23;;;;;;;1.58;0.68;;;36.60;54.20;;;;;;5056008;28;20410;-63
2022/07/02 07:26:50;;;;;;;1.80;0.47;;;37.00;53.10;;;;;;5055641;28;20221;-62
2022/07/02 07:29:16;;;;;;;0.75;0.52;;;37.00;53.10;;;;;;5055826;28;20620;-62
2022/07/02 07:31:43;;;;;;;1.20;0.80;;;37.20;52.60;;;;;;5055385;28;20221;-62
2022/07/02 07:34:10;;;;;;;1.52;0.65;;;37.70;52.30;;;;;;5054431;28;20217;-63
2022/07/02 07:36:37;;;;;;;1.60;0.85;;;38.50;50.10;;;;;;5055928;28;20244;-65
2022/07/02 07:39:05;;;;;;;1.63;0.52;;;39.20;48.60;;;;;;5056525;28;20213;-63
2022/07/02 07:41:32;;;;;;;0.93;0.60;;;39.70;47.70;;;;;;5056570;28;20206;-64
2022/07/02 07:43:59;;;;;;;0.73;0.50;;;39.20;48.10;;;;;;5055593;28;20267;-62
2022/07/02 07:46:26;;;;;;;0.82;0.60;;;38.50;48.60;;;;;;5054940;28;20225;-62
2022/07/02 07:48:53;;;;;;;1.02;0.63;;;37.90;49.30;;;;;;5055185;28;20233;-63
2022/07/02 07:51:20;;;;;;;1.02;0.68;;;37.70;49.40;;;;;;5055139;28;20217;-62
2022/07/02 07:53:47;;;;;;;0.98;0.30;;;37.60;48.80;;;;;;5055569;28;20210;-65
2022/07/02 07:56:15;;;;;;;1.02;0.55;;;37.50;49.20;;;;;;5055204;28;20240;-64
2022/07/02 07:58:42;;;;;;;0.77;0.47;;;37.90;48.30;;;;;;5055240;28;20208;-63
2022/07/02 08:01:09;;;;;;;1.17;0.60;;;37.80;47.60;;;;;;5055398;28;20236;-62
2022/07/02 08:03:36;;;;;;;1.00;0.70;;;37.60;48.50;;;;;;5056132;28;20653;-63
2022/07/02 08:06:03;;;;;;;0.63;0.40;;;38.30;48.20;;;;;;5056759;28;20234;-63
2022/07/02 08:08:30;;;;;;;1.70;0.30;;;39.40;45.90;;;;;;5055495;28;20227;-63
2022/07/02 08:10:57;;;;;;;0.80;0.40;;;39.90;44.40;;;;;;5055234;28;20209;-63
2022/07/02 08:13:25;;;;;;;0.55;0.40;;;39.60;44.00;;;;;;5054507;28;20216;-63
2022/07/02 08:15:52;;;;;;;2.45;0.60;;;39.50;43.40;;;;;;5051961;28;20260;-63
2022/07/02 08:18:18;;;;;;;0.75;0.55;;;38.70;44.60;;;;;;5053627;28;20201;-63
2022/07/02 08:20:45;;;;;;;1.45;0.45;;;38.20;45.30;;;;;;5053614;28;20213;-63
2022/07/02 08:23:12;;;;;;;2.75;0.63;;;38.00;45.10;;;;;;5053338;28;20217;-63
2022/07/02 08:25:38;;;;;;;6.13;0.80;;;37.80;45.20;;;;;;5053460;28;20229;-63
2022/07/02 08:28:05;;;;;;;1.75;0.60;;;37.60;45.10;;;;;;5052958;28;20588;-64
2022/07/02 08:30:33;;;;;;;0.45;0.40;;;37.80;45.00;;;;;;5053279;28;20201;-63
2022/07/02 08:33:00;;;;;;;0.75;0.43;;;37.70;45.10;;;;;;5052803;28;20669;-62
2022/07/02 08:35:27;;;;;;;1.95;0.60;;;37.70;44.90;;;;;;5052662;28;20605;-65
2022/07/02 08:37:54;;;;;;;0.60;0.50;;;37.60;45.00;;;;;;5053458;28;20289;-64
2022/07/02 08:40:24;;;;;;;1.50;0.52;;;37.80;45.60;;;;;;5053665;28;20209;-63
2022/07/02 08:42:53;;;;;;;0.57;0.30;;;37.70;45.10;;;;;;5055078;28;20735;-65
2022/07/02 08:45:22;;;;;;;2.65;0.77;;;37.50;44.40;;;;;;5054323;28;20627;-59
2022/07/02 08:47:53;;;;;;;1.02;0.52;;;36.80;46.80;;;;;;5053609;28;20230;-59
2022/07/02 08:50:21;;;;;;;1.10;0.40;;;36.70;46.10;;;;;;5053560;28;20240;-59
2022/07/02 08:52:50;;;;;;;1.75;0.60;;;36.70;46.90;;;;;;5053074;28;20237;-59
2022/07/02 08:55:18;;;;;;;0.50;0.40;;;36.10;47.40;;;;;;5053304;28;20253;-59
2022/07/02 08:57:46;;;;;;;0.95;0.40;;;35.10;48.80;;;;;;5053331;28;20404;-59
2022/07/02 09:00:14;;;;;;;0.40;0.40;;;33.60;50.10;;;;;;5053424;28;20488;-59
2022/07/02 09:02:42;;;;;;;1.08;0.60;;;32.30;51.20;;;;;;5053422;28;20568;-59
2022/07/02 09:05:15;;;;;;;0.40;0.30;;;30.80;53.90;;;;;;5053183;28;20728;-58
2022/07/02 09:07:42;;;;;;;1.75;0.80;;;29.50;56.50;;;;;;5053156;28;20205;-58
2022/07/02 09:10:11;;;;;;;0.73;0.40;;;28.30;59.00;;;;;;5053156;28;20213;-59
2022/07/02 09:12:39;;;;;;;1.38;0.40;;;27.10;61.80;;;;;;5053069;28;20233;-57
2022/07/02 09:15:07;;;;;;;2.80;0.80;;;26.10;64.20;;;;;;5053178;28;20601;-57
2022/07/02 09:17:34;;;;;;;2.20;0.73;;;25.40;66.40;;;;;;5052918;28;20210;-59
2022/07/02 09:20:01;;;;;;;0.70;0.50;;;25.00;68.80;;;;;;5053102;28;20206;-58
2022/07/02 09:22:34;;;;;;;1.88;0.63;;;24.70;70.00;;;;;;5052675;28;20210;-58
2022/07/02 09:25:14;;;;;;;0.40;0.40;;;24.50;71.20;;;;;;5052931;28;20701;-59
2022/07/02 09:27:41;;;;;;;0.85;0.57;;;24.40;71.10;;;;;;5052736;28;20706;-59
2022/07/02 09:30:09;;;;;;;0.38;0.38;;;24.40;70.50;;;;;;5052876;28;20210;-58
2022/07/02 09:32:41;;;;;;;1.80;0.70;;;24.20;70.00;;;;;;5052625;28;20214;-57
2022/07/02 09:35:17;;;;;;;1.15;0.55;;;24.00;70.50;;;;;;5074378;23;20240;-59
2022/07/02 09:37:45;;;;;;;0.93;0.43;;;23.90;71.60;;;;;;5020409;28;20260;-59
2022/07/02 09:40:12;;;;;;;0.90;0.47;;;23.80;70.90;;;;;;5030984;28;20248;-58
2022/07/02 09:42:39;;;;;;;1.83;0.70;;;23.90;71.60;;;;;;5031715;28;20213;-59
2022/07/02 09:45:11;;;;;;;0.40;0.30;;;23.90;71.50;;;;;;5033143;28;20213;-58
2022/07/02 09:47:40;;;;;;;0.60;0.50;;;24.10;68.80;;;;;;5052207;28;20206;-58
2022/07/02 09:50:09;;;;;;;0.82;0.57;;;24.10;69.40;;;;;;5052124;28;20316;-58
2022/07/02 09:52:36;;;;;;;0.68;0.40;;;24.20;71.20;;;;;;5051556;28;20201;-58
2022/07/02 09:55:05;;;;;;;0.75;0.50;;;24.20;67.20;;;;;;5051507;28;20271;-58
2022/07/02 09:57:32;;;;;;;1.92;0.47;;;24.30;67.00;;;;;;5050735;28;20210;-58
2022/07/02 10:00:07;;;;;;;0.70;0.57;;;24.30;66.60;;;;;;5051809;28;20201;-58
2022/07/02 10:02:36;;;;;;;0.73;0.57;;;24.50;67.00;;;;;;5051275;28;20669;-58
2022/07/02 10:05:06;;;;;;;0.80;0.40;;;24.40;68.00;;;;;;5051544;28;20209;-58
2022/07/02 10:07:33;;;;;;;0.50;0.50;;;24.40;68.00;;;;;;5051694;28;20206;-58
2022/07/02 10:10:04;;;;;;;3.85;0.73;;;24.60;66.80;;;;;;5051516;28;20582;-58
2022/07/02 10:12:31;;;;;;;1.02;0.60;;;24.70;66.50;;;;;;5051329;28;20276;-58
2022/07/02 10:14:58;;;;;;;0.77;0.60;;;24.70;66.10;;;;;;5051601;28;20583;-58
2022/07/02 10:17:25;;;;;;;0.47;0.43;;;24.70;65.20;;;;;;5051512;28;20275;-58
2022/07/02 10:19:52;;;;;;;0.55;0.47;;;24.70;65.40;;;;;;5051393;28;20683;-58
2022/07/02 10:22:20;;;;;;;1.05;0.50;;;24.80;66.60;;;;;;5051356;28;20700;-57
2022/07/02 10:24:49;;;;;;;1.83;0.55;;;24.90;67.40;;;;;;5051549;28;20251;-58
2022/07/02 10:27:18;;;;;;;1.23;0.52;;;25.00;66.40;;;;;;5051588;28;20287;-58
2022/07/02 10:29:46;;;;;;;0.70;0.50;;;24.90;68.50;;;;;;5051766;28;20236;-58
2022/07/02 10:32:27;;;;;;;1.45;0.60;;;25.00;67.80;;;;;;5051291;28;20201;-58
2022/07/02 10:35:06;;;;;;;1.25;0.70;;;25.30;67.00;;;;;;5051452;28;20673;-58
2022/07/02 10:37:32;;;;;;;4.00;0.77;;;25.40;66.00;;;;;;5051873;28;20189;-58
2022/07/02 10:40:02;;;;;;;1.45;0.60;;;25.50;65.40;;;;;;5051257;28;20213;-58
2022/07/02 10:42:39;;;;;;;1.92;0.70;;;25.40;66.50;;;;;;5051379;28;20201;-58
2022/07/02 10:45:10;;;;;;;1.60;0.50;;;25.50;65.30;;;;;;5051187;28;20292;-58
2022/07/02 10:47:37;;;;;;;1.67;0.45;;;25.60;62.90;;;;;;5051401;28;20251;-59
2022/07/02 10:50:04;;;;;;;2.25;1.50;;;25.50;64.70;;;;;;5051387;28;20292;-59
2022/07/02 10:52:39;;;;;;;0.73;0.50;;;25.60;65.10;;;;;;5051237;28;20210;-59
2022/07/02 10:55:06;;;;;;;1.77;0.43;;;25.60;63.80;;;;;;5050913;28;20205;-59
2022/07/02 10:57:33;;;;;;;1.42;0.70;;;25.70;63.10;;;;;;5051135;28;20206;-59
2022/07/02 11:00:02;;;;;;;0.43;0.40;;;25.70;63.10;;;;;;5051041;28;20677;-59
2022/07/02 11:02:35;;;;;;;2.05;0.82;;;25.70;62.80;;;;;;5050763;28;20571;-59
2022/07/02 11:05:09;;;;;;;0.45;0.40;;;25.70;62.40;;;;;;5050928;28;20205;-58
2022/07/02 11:07:43;;;;;;;2.25;0.50;;;25.90;61.80;;;;;;5051413;28;20590;-59
2022/07/02 11:10:10;;;;;;;1.20;0.70;;;26.10;61.60;;;;;;5054448;28;20782;-58
2022/07/02 11:12:46;;;;;;;2.70;0.82;;;26.10;60.30;;;;;;5054393;28;20210;-58
2022/07/02 11:15:19;;;;;;;3.03;0.63;;;26.10;61.50;;;;;;5054917;28;20205;-59
2022/07/02 11:17:49;;;;;;;2.05;0.60;;;26.20;63.60;;;;;;5054772;28;20296;-59
2022/07/02 11:20:23;;;;;;;0.80;0.68;;;26.10;62.20;;;;;;5054909;28;20240;-60
2022/07/02 11:22:50;;;;;;;1.35;0.60;;;26.00;63.00;;;;;;5054371;28;20295;-59
2022/07/02 11:25:17;;;;;;;0.70;0.57;;;26.00;62.50;;;;;;5054770;28;20205;-59
2022/07/02 11:27:44;;;;;;;0.50;0.50;;;26.00;63.40;;;;;;5053511;28;20206;-59
2022/07/02 11:30:11;;;;;;;1.05;0.90;;;26.00;61.90;;;;;;5031545;28;20242;-60
2022/07/02 11:32:39;;;;;;;1.48;0.70;;;26.00;61.80;;;;;;5047055;28;20818;-61
2022/07/02 11:35:07;;;;;;;0.40;0.28;;;26.00;61.30;;;;;;5053008;28;20206;-61
2022/07/02 11:37:34;;;;;;;1.88;0.60;;;26.00;61.60;;;;;;5053145;28;20202;-60
2022/07/02 11:40:01;;;;;;;3.03;0.43;;;26.00;60.50;;;;;;5053280;28;20206;-61
2022/07/02 11:42:37;;;;;;;0.45;0.45;;;26.10;57.90;;;;;;5052535;28;20241;-61
2022/07/02 11:45:04;;;;;;;5.28;4.70;;;26.30;59.20;;;;;;5037096;28;20366;-64
2022/07/02 11:47:31;;;;;;;0.68;0.60;;;26.30;60.30;;;;;;5032250;28;20210;-61
2022/07/02 11:49:59;;;;;;;0.60;0.57;;;26.40;60.60;;;;;;5032278;28;20222;-60
2022/07/02 11:52:27;;;;;;;0.70;0.55;;;26.40;60.50;;;;;;5032462;28;20640;-60
2022/07/02 11:54:54;;;;;;;0.70;0.40;;;26.40;61.10;;;;;;5032880;28;20276;-61
2022/07/02 11:57:20;;;;;;;1.00;0.50;;;26.30;61.20;;;;;;5033082;28;20245;-61
2022/07/02 11:59:51;;;;;;;1.25;0.70;;;26.30;61.40;;;;;;5032959;28;20264;-62
2022/07/02 12:02:18;;;;;;;1.00;0.60;;;26.40;61.50;;;;;;5032768;28;20757;-62
2022/07/02 12:04:46;;;;;;;0.95;0.40;;;26.60;60.60;;;;;;5032393;28;20252;-61
2022/07/02 12:07:14;;;;;;;0.88;0.60;;;26.80;60.20;;;;;;5032308;28;20321;-59
2022/07/02 12:09:41;;;;;;;1.63;0.60;;;27.00;60.00;;;;;;5032695;28;20222;-63
2022/07/02 12:12:09;;;;;;;1.25;0.88;;;27.20;60.90;;;;;;5032675;28;20206;-61
2022/07/02 12:14:37;;;;;;;2.25;0.60;;;27.30;58.60;;;;;;5032591;28;20210;-64
2022/07/02 12:17:08;;;;;;;3.92;0.88;;;27.10;58.40;;;;;;5033001;28;20252;-57
2022/07/02 12:19:35;;;;;;;0.70;0.50;;;27.20;58.10;;;;;;5032496;28;20689;-57
2022/07/02 12:22:02;;;;;;;1.02;0.60;;;27.20;57.90;;;;;;5033295;28;20328;-57
2022/07/02 12:24:33;;;;;;;2.47;0.80;;;27.30;57.60;;;;;;5033335;28;20233;-57
2022/07/02 12:27:02;;;;;;;0.95;0.52;;;27.50;56.40;;;;;;5033368;28;20237;-57
2022/07/02 12:32:17;;;;;;;4.65;0.70;;;27.40;57.30;;;;;;5033169;28;20680;-59
2022/07/02 12:34:46;;;;;;;0.80;0.50;;;27.30;57.00;;;;;;5033364;28;20202;-58
2022/07/02 12:37:22;;;;;;;0.68;0.60;;;27.30;56.80;;;;;;5032898;28;20304;-58
2022/07/02 12:39:58;;;;;;;1.38;0.75;;;27.30;57.90;;;;;;5033176;28;20229;-58
2022/07/02 12:42:25;;;;;;;1.55;0.70;;;27.10;56.80;;;;;;5032828;28;20237;-57
2022/07/02 12:44:57;;;;;;;0.40;0.40;;;27.00;57.90;;;;;;5032909;28;20670;-59
2022/07/02 12:47:32;;;;;;;1.17;0.57;;;26.90;57.90;;;;;;5033050;28;20709;-59
2022/07/02 12:50:02;;;;;;;1.10;0.45;;;26.90;57.20;;;;;;5033112;28;20236;-61
2022/07/02 12:52:30;;;;;;;2.08;1.50;;;27.00;57.70;;;;;;5032761;28;20209;-59
2022/07/02 12:54:59;;;;;;;0.70;0.57;;;27.20;57.90;;;;;;5032896;28;20324;-62
2022/07/02 12:57:26;;;;;;;1.50;0.77;;;27.30;56.50;;;;;;5032637;28;20641;-60
2022/07/02 12:59:54;;;;;;;1.60;0.63;;;27.30;57.70;;;;;;5033677;28;20683;-60